Time;durP1;ratioP1;P1;durP2;ratioP2;P2;SDS_P1;SDS_P2;PMS_P1;PMS_P2;Temp;Humidity;BMP_temperature;BMP_pressure;BME280_temperature;BME280_humidity;BME280_pressure;Samples;Min_cycle;Max_cycle;Signal;HPM_P1;HPM_P2
2023/12/26 00:01:09;;;;;;;2.60;0.90;;;11.80;99.90;;;;;;5114340;28;20028;-63
2023/12/26 00:03:35;;;;;;;1.23;0.70;;;11.80;99.90;;;;;;5114443;28;20036;-61
2023/12/26 00:06:00;;;;;;;3.20;0.90;;;11.70;99.90;;;;;;5114501;28;20020;-61
2023/12/26 00:08:26;;;;;;;1.98;0.80;;;11.70;99.90;;;;;;5114350;28;20028;-61
2023/12/26 00:10:52;;;;;;;0.60;0.50;;;11.70;99.90;;;;;;5114327;28;20028;-61
2023/12/26 00:13:17;;;;;;;0.90;0.68;;;11.70;99.90;;;;;;5114308;28;20031;-61
2023/12/26 00:15:43;;;;;;;2.75;0.90;;;11.70;99.90;;;;;;5114240;28;20036;-62
2023/12/26 00:18:08;;;;;;;1.67;0.55;;;11.70;99.90;;;;;;5114235;28;20039;-62
2023/12/26 00:20:36;;;;;;;2.58;0.93;;;11.60;99.90;;;;;;5114147;28;20027;-61
2023/12/26 00:23:02;;;;;;;1.60;0.93;;;11.60;99.90;;;;;;5113675;28;20031;-62
2023/12/26 00:25:28;;;;;;;1.40;0.88;;;11.50;99.90;;;;;;5114073;28;20051;-60
2023/12/26 00:27:54;;;;;;;1.85;0.93;;;11.60;99.90;;;;;;5114006;28;20020;-60
2023/12/26 00:30:19;;;;;;;2.03;1.00;;;11.60;99.90;;;;;;5113896;28;20035;-62
2023/12/26 00:32:45;;;;;;;1.50;0.80;;;11.50;99.90;;;;;;5112933;28;20049;-62
2023/12/26 00:35:13;;;;;;;1.73;1.05;;;11.60;99.90;;;;;;5113865;28;20040;-61
2023/12/26 00:37:39;;;;;;;1.55;1.08;;;11.50;99.90;;;;;;5113852;28;20549;-61
2023/12/26 00:40:05;;;;;;;1.35;0.80;;;11.60;99.90;;;;;;5113838;28;20024;-61
2023/12/26 00:42:31;;;;;;;3.20;0.90;;;11.60;99.90;;;;;;5113721;28;20027;-62
2023/12/26 00:44:58;;;;;;;1.77;0.98;;;11.60;99.90;;;;;;5113732;28;20106;-63
2023/12/26 00:47:23;;;;;;;2.22;1.10;;;11.60;99.90;;;;;;5113685;28;20024;-62
2023/12/26 00:49:49;;;;;;;2.67;1.05;;;11.60;99.90;;;;;;5113563;28;20470;-62
2023/12/26 00:52:15;;;;;;;1.20;0.88;;;11.50;99.90;;;;;;5113501;28;20032;-61
2023/12/26 00:54:40;;;;;;;3.80;0.90;;;11.60;99.90;;;;;;5113561;28;20052;-61
2023/12/26 00:57:06;;;;;;;1.83;0.95;;;11.50;99.90;;;;;;5113420;28;20040;-62
2023/12/26 00:59:31;;;;;;;1.15;0.77;;;11.50;99.90;;;;;;5113279;28;20056;-60
2023/12/26 01:02:01;;;;;;;1.98;0.93;;;11.50;99.90;;;;;;5113132;28;20040;-62
2023/12/26 01:04:27;;;;;;;3.08;0.90;;;11.50;99.90;;;;;;5113382;28;20091;-62
2023/12/26 01:06:53;;;;;;;2.65;0.90;;;11.50;99.90;;;;;;5113313;28;20062;-61
2023/12/26 01:09:18;;;;;;;1.58;0.85;;;11.50;99.90;;;;;;5113344;28;20028;-62
2023/12/26 01:11:44;;;;;;;1.08;0.85;;;11.50;99.90;;;;;;5113243;28;20080;-61
2023/12/26 01:14:10;;;;;;;2.72;0.77;;;11.60;99.90;;;;;;5113186;28;20053;-61
2023/12/26 01:16:37;;;;;;;1.95;0.73;;;11.50;99.90;;;;;;5113174;28;20031;-62
2023/12/26 01:19:02;;;;;;;1.75;0.88;;;11.50;99.90;;;;;;5113070;28;20083;-63
2023/12/26 01:21:28;;;;;;;2.13;0.80;;;11.60;99.90;;;;;;5113001;28;20039;-62
2023/12/26 01:23:55;;;;;;;1.30;0.63;;;11.50;99.90;;;;;;5112877;28;20035;-61
2023/12/26 01:26:23;;;;;;;3.33;0.85;;;11.50;99.90;;;;;;5112950;28;20020;-62
2023/12/26 01:28:48;;;;;;;2.45;0.88;;;11.50;99.90;;;;;;5112957;28;20031;-62
2023/12/26 01:31:14;;;;;;;2.10;0.70;;;11.50;99.90;;;;;;5112747;28;20076;-60
2023/12/26 01:33:40;;;;;;;1.13;0.70;;;11.50;99.90;;;;;;5112884;28;20036;-61
2023/12/26 01:36:06;;;;;;;3.65;1.02;;;11.50;99.90;;;;;;5112335;28;20025;-62
2023/12/26 01:38:31;;;;;;;2.65;0.70;;;11.60;99.90;;;;;;5112917;28;20027;-62
2023/12/26 01:40:57;;;;;;;1.40;0.75;;;11.50;99.90;;;;;;5112808;28;20032;-62
2023/12/26 01:43:22;;;;;;;1.33;0.98;;;11.50;99.90;;;;;;5112793;28;20137;-61
2023/12/26 01:45:53;;;;;;;1.35;1.00;;;11.50;99.90;;;;;;5112741;28;20035;-61
2023/12/26 01:48:20;;;;;;;2.30;1.00;;;11.50;99.90;;;;;;5112779;28;20020;-62
2023/12/26 01:50:45;;;;;;;1.45;0.90;;;11.50;99.90;;;;;;5112653;28;20089;-62
2023/12/26 01:53:11;;;;;;;1.80;1.00;;;11.50;99.90;;;;;;5112725;28;20092;-62
2023/12/26 01:55:37;;;;;;;1.33;1.10;;;11.50;99.90;;;;;;5112856;28;20031;-61
2023/12/26 01:58:04;;;;;;;6.15;1.42;;;11.50;99.90;;;;;;5112751;28;20031;-62
2023/12/26 02:00:29;;;;;;;2.42;1.30;;;11.50;99.90;;;;;;5112291;28;20151;-62
2023/12/26 02:02:55;;;;;;;2.17;1.17;;;11.50;99.90;;;;;;5112311;28;20023;-61
2023/12/26 02:05:21;;;;;;;1.55;1.10;;;11.50;99.90;;;;;;5112512;28;20016;-61
2023/12/26 02:07:47;;;;;;;2.38;1.40;;;11.50;99.90;;;;;;5111627;28;20080;-63
2023/12/26 02:10:13;;;;;;;1.77;1.10;;;11.50;99.90;;;;;;5112562;28;20028;-60
2023/12/26 02:12:38;;;;;;;2.15;1.50;;;11.50;99.90;;;;;;5112587;28;20020;-61
2023/12/26 02:15:05;;;;;;;1.88;1.17;;;11.50;99.90;;;;;;5112487;28;20025;-62
2023/12/26 02:17:32;;;;;;;4.35;1.52;;;11.50;99.90;;;;;;5112380;28;20047;-61
2023/12/26 02:19:57;;;;;;;2.92;1.30;;;11.50;99.90;;;;;;5112460;28;20031;-62
2023/12/26 02:22:23;;;;;;;3.50;0.82;;;11.50;99.90;;;;;;5112298;28;20036;-64
2023/12/26 02:24:49;;;;;;;1.85;1.15;;;11.50;99.90;;;;;;5111427;28;20035;-61
2023/12/26 02:27:36;;;;;;;1.98;1.20;;;11.50;99.90;;;;;;5112323;28;20050;-61
2023/12/26 02:30:03;;;;;;;3.75;1.40;;;11.50;99.90;;;;;;5112283;28;20054;-62
2023/12/26 02:32:30;;;;;;;2.67;1.70;;;11.60;99.90;;;;;;5112152;28;20035;-63
2023/12/26 02:35:00;;;;;;;2.95;1.88;;;11.60;99.90;;;;;;5112363;28;20043;-63
2023/12/26 02:37:26;;;;;;;1.95;1.40;;;11.60;99.90;;;;;;5112437;28;20028;-61
2023/12/26 02:39:52;;;;;;;2.42;1.58;;;11.60;99.90;;;;;;5112383;28;20028;-60
2023/12/26 02:42:22;;;;;;;1.50;1.30;;;11.50;99.90;;;;;;5112083;28;20102;-62
2023/12/26 02:44:48;;;;;;;1.90;1.45;;;11.50;99.90;;;;;;5112200;28;20030;-61
2023/12/26 02:47:14;;;;;;;3.80;1.60;;;11.60;99.90;;;;;;5114364;28;20109;-61
2023/12/26 02:49:40;;;;;;;3.08;1.65;;;11.50;99.90;;;;;;5115980;28;20050;-60
2023/12/26 02:52:06;;;;;;;2.63;1.70;;;11.60;99.90;;;;;;5115924;28;20103;-63
2023/12/26 02:54:31;;;;;;;2.50;1.75;;;11.60;99.90;;;;;;5115897;28;20032;-61
2023/12/26 02:56:57;;;;;;;2.53;1.70;;;11.60;99.90;;;;;;5115672;28;20032;-61
2023/12/26 02:59:23;;;;;;;2.92;2.03;;;11.60;99.90;;;;;;5115554;28;20081;-62
2023/12/26 03:01:49;;;;;;;3.20;2.30;;;11.50;99.90;;;;;;5115480;28;20028;-62
2023/12/26 03:04:15;;;;;;;3.50;2.17;;;11.50;99.90;;;;;;5115692;28;20031;-62
2023/12/26 03:06:41;;;;;;;3.45;2.20;;;11.50;99.90;;;;;;5115632;28;20038;-61
2023/12/26 03:09:07;;;;;;;3.45;1.67;;;11.50;99.90;;;;;;5115569;28;20028;-61
2023/12/26 03:11:33;;;;;;;3.00;1.92;;;11.50;99.90;;;;;;5115389;28;20024;-63
2023/12/26 03:13:59;;;;;;;2.55;1.75;;;11.50;99.90;;;;;;5115469;28;20034;-61
2023/12/26 03:16:25;;;;;;;3.42;2.22;;;11.50;99.90;;;;;;5115455;28;20031;-61
2023/12/26 03:18:51;;;;;;;3.53;2.10;;;11.40;99.90;;;;;;5115378;28;20028;-61
2023/12/26 03:21:17;;;;;;;4.55;1.90;;;11.50;99.90;;;;;;5115229;28;20069;-61
2023/12/26 03:23:42;;;;;;;3.20;1.73;;;11.50;99.90;;;;;;5115188;28;20028;-62
2023/12/26 03:26:08;;;;;;;2.13;1.73;;;11.50;99.90;;;;;;5115151;28;20140;-64
2023/12/26 03:28:34;;;;;;;2.80;1.67;;;11.50;99.90;;;;;;5115220;28;20074;-62
2023/12/26 03:31:02;;;;;;;4.45;2.05;;;11.50;99.90;;;;;;5114926;28;20019;-63
2023/12/26 03:33:28;;;;;;;3.00;1.77;;;11.50;99.90;;;;;;5115038;28;20031;-62
2023/12/26 03:35:54;;;;;;;6.10;2.05;;;11.60;99.90;;;;;;5115016;28;20024;-62
2023/12/26 03:38:19;;;;;;;2.75;1.50;;;11.60;99.90;;;;;;5115005;28;20480;-62
2023/12/26 03:40:45;;;;;;;4.97;1.75;;;11.60;99.90;;;;;;5114863;28;20024;-61
2023/12/26 03:43:11;;;;;;;2.67;1.42;;;11.50;99.90;;;;;;5114967;28;20046;-61
2023/12/26 03:45:36;;;;;;;3.45;1.15;;;11.60;99.90;;;;;;5114992;28;20049;-61
2023/12/26 03:48:04;;;;;;;3.10;1.42;;;11.60;99.90;;;;;;5114968;28;20020;-61
2023/12/26 03:50:30;;;;;;;2.50;1.33;;;11.50;99.90;;;;;;5114908;28;20093;-61
2023/12/26 03:52:56;;;;;;;6.00;0.85;;;11.60;99.90;;;;;;5114802;28;20028;-61
2023/12/26 03:55:21;;;;;;;1.70;0.88;;;11.60;99.90;;;;;;5114597;28;20032;-62
2023/12/26 03:57:47;;;;;;;2.33;0.80;;;11.60;99.90;;;;;;5113996;28;20032;-62
2023/12/26 04:00:13;;;;;;;2.63;0.95;;;11.60;99.90;;;;;;5114274;28;20060;-64
2023/12/26 04:02:40;;;;;;;3.05;0.75;;;11.60;99.90;;;;;;5114488;28;20036;-61
2023/12/26 04:05:07;;;;;;;5.03;1.10;;;11.60;99.90;;;;;;5114458;28;20021;-61
2023/12/26 04:07:33;;;;;;;3.85;1.02;;;11.50;99.90;;;;;;5114453;28;20024;-62
2023/12/26 04:09:58;;;;;;;2.28;0.63;;;11.60;99.90;;;;;;5114291;28;20030;-61
2023/12/26 04:12:24;;;;;;;1.30;0.45;;;11.50;99.90;;;;;;5114371;28;20035;-62
2023/12/26 04:14:49;;;;;;;2.72;0.85;;;11.50;99.90;;;;;;5114373;28;20039;-62
2023/12/26 04:17:16;;;;;;;2.28;0.40;;;11.50;99.90;;;;;;5114266;28;20031;-62
2023/12/26 04:19:42;;;;;;;1.00;0.45;;;11.50;99.90;;;;;;5114169;28;20016;-63
2023/12/26 04:22:09;;;;;;;3.95;0.80;;;11.50;99.90;;;;;;5114103;28;20039;-62
2023/12/26 04:24:35;;;;;;;6.03;0.80;;;11.50;99.90;;;;;;5114074;28;20076;-62
2023/12/26 04:27:01;;;;;;;3.95;0.80;;;11.50;99.90;;;;;;5113997;28;20043;-60
2023/12/26 04:29:27;;;;;;;3.83;0.70;;;11.50;99.90;;;;;;5114000;28;20024;-61
2023/12/26 04:31:52;;;;;;;3.50;0.88;;;11.50;99.90;;;;;;5113820;28;20050;-61
2023/12/26 04:34:18;;;;;;;2.95;0.63;;;11.50;99.90;;;;;;5112962;28;20032;-60
2023/12/26 04:36:44;;;;;;;3.17;0.70;;;11.50;99.90;;;;;;5113956;28;20050;-62
2023/12/26 04:39:09;;;;;;;3.33;0.60;;;11.50;99.90;;;;;;5113834;28;20017;-62
2023/12/26 04:41:35;;;;;;;5.32;0.93;;;11.50;99.90;;;;;;5113967;28;20481;-61
2023/12/26 04:44:01;;;;;;;5.22;0.50;;;11.50;99.90;;;;;;5113661;28;20024;-62
2023/12/26 04:46:26;;;;;;;1.70;0.73;;;11.40;99.90;;;;;;5113739;28;20577;-63
2023/12/26 04:48:53;;;;;;;2.67;0.73;;;11.40;99.90;;;;;;5113763;28;20025;-62
2023/12/26 04:51:19;;;;;;;5.22;0.70;;;11.40;99.90;;;;;;5113871;28;20027;-63
2023/12/26 04:53:45;;;;;;;4.55;0.75;;;11.40;99.90;;;;;;5113523;28;20016;-61
2023/12/26 04:56:20;;;;;;;6.10;0.57;;;11.40;99.90;;;;;;5113599;28;20046;-61
2023/12/26 04:58:47;;;;;;;4.40;1.02;;;11.40;99.90;;;;;;5113218;28;20036;-62
2023/12/26 05:01:13;;;;;;;5.72;1.52;;;11.40;99.90;;;;;;5113450;28;20043;-62
2023/12/26 05:03:39;;;;;;;5.40;0.63;;;11.30;99.90;;;;;;5113289;28;20043;-63
2023/12/26 05:06:05;;;;;;;1.45;0.40;;;11.30;99.90;;;;;;5113296;28;20084;-61
2023/12/26 05:08:31;;;;;;;3.75;0.60;;;11.30;99.90;;;;;;5113281;28;20020;-63
2023/12/26 05:10:57;;;;;;;2.58;0.65;;;11.20;99.90;;;;;;5112424;28;20016;-64
2023/12/26 05:13:22;;;;;;;4.55;0.50;;;11.20;99.90;;;;;;5113327;28;20097;-63
2023/12/26 05:15:49;;;;;;;3.60;0.60;;;11.20;99.90;;;;;;5113181;28;20020;-63
2023/12/26 05:18:15;;;;;;;2.92;0.40;;;11.10;99.90;;;;;;5113249;28;20051;-60
2023/12/26 05:20:40;;;;;;;3.20;0.68;;;11.10;99.90;;;;;;5113048;28;20031;-63
2023/12/26 05:23:06;;;;;;;4.88;0.73;;;11.00;99.90;;;;;;5113012;28;20038;-62
2023/12/26 05:25:32;;;;;;;2.97;0.50;;;10.90;99.90;;;;;;5113067;28;20024;-62
2023/12/26 05:27:58;;;;;;;4.13;0.45;;;10.80;99.90;;;;;;5112886;28;20043;-62
2023/12/26 05:30:24;;;;;;;1.60;0.50;;;10.80;99.90;;;;;;5112884;28;20036;-61
2023/12/26 05:32:49;;;;;;;2.67;0.73;;;10.80;99.90;;;;;;5112955;28;20028;-61
2023/12/26 05:35:15;;;;;;;2.65;0.60;;;10.80;99.90;;;;;;5112854;28;20058;-63
2023/12/26 05:37:41;;;;;;;5.40;0.75;;;10.70;99.90;;;;;;5112856;28;20028;-63
2023/12/26 05:40:07;;;;;;;4.70;1.00;;;10.70;99.90;;;;;;5112883;28;20031;-62
2023/12/26 05:42:33;;;;;;;1.83;0.40;;;10.60;99.90;;;;;;5112821;28;20020;-63
2023/12/26 05:44:58;;;;;;;1.80;0.52;;;10.60;99.90;;;;;;5112930;28;20028;-62
2023/12/26 05:47:24;;;;;;;4.65;0.60;;;10.60;99.90;;;;;;5112847;28;20042;-62
2023/12/26 05:49:50;;;;;;;5.13;0.98;;;10.50;99.90;;;;;;5112762;28;20028;-62
2023/12/26 05:52:15;;;;;;;4.75;0.80;;;10.50;99.90;;;;;;5112739;28;20099;-62
2023/12/26 05:54:41;;;;;;;2.20;0.50;;;10.50;99.90;;;;;;5112796;28;20047;-62
2023/12/26 05:57:08;;;;;;;2.72;0.60;;;10.50;99.90;;;;;;5112582;28;20020;-62
2023/12/26 05:59:33;;;;;;;8.32;1.00;;;10.40;99.90;;;;;;5112529;28;20064;-61
2023/12/26 06:01:59;;;;;;;3.63;0.98;;;10.40;99.90;;;;;;5111591;28;20028;-61
2023/12/26 06:04:25;;;;;;;2.03;0.45;;;10.40;99.90;;;;;;5112609;28;20024;-62
2023/12/26 06:06:50;;;;;;;4.93;0.73;;;10.40;99.90;;;;;;5112654;28;20050;-63
2023/12/26 06:09:16;;;;;;;1.38;0.50;;;10.40;99.90;;;;;;5112687;28;20028;-62
2023/12/26 06:11:42;;;;;;;5.72;0.98;;;10.40;99.90;;;;;;5112688;28;20028;-60
2023/12/26 06:14:08;;;;;;;2.50;0.63;;;10.40;99.90;;;;;;5112591;28;20035;-61
2023/12/26 06:16:34;;;;;;;4.28;0.77;;;10.40;99.90;;;;;;5112569;28;20016;-62
2023/12/26 06:19:00;;;;;;;6.00;1.20;;;10.40;99.90;;;;;;5112421;28;20044;-62
2023/12/26 06:21:25;;;;;;;3.55;1.20;;;10.40;99.90;;;;;;5113338;28;20050;-62
2023/12/26 06:23:51;;;;;;;2.70;1.15;;;10.40;99.90;;;;;;5116499;28;20032;-62
2023/12/26 06:26:17;;;;;;;9.00;0.70;;;10.40;99.90;;;;;;5115472;28;20036;-62
2023/12/26 06:28:43;;;;;;;5.85;0.70;;;10.40;99.90;;;;;;5116528;28;20036;-61
2023/12/26 06:31:15;;;;;;;5.10;0.80;;;10.30;99.90;;;;;;5116253;28;20024;-64
2023/12/26 06:33:41;;;;;;;2.25;0.80;;;10.20;99.90;;;;;;5116403;28;20404;-62
2023/12/26 06:36:07;;;;;;;4.25;0.73;;;10.20;99.90;;;;;;5116285;28;20020;-63
2023/12/26 06:38:33;;;;;;;5.20;0.65;;;10.20;99.90;;;;;;5116356;28;20012;-63
2023/12/26 06:40:58;;;;;;;6.03;1.15;;;10.10;99.90;;;;;;5116133;28;20028;-61
2023/12/26 06:43:24;;;;;;;4.00;1.00;;;10.10;99.90;;;;;;5116100;28;20054;-63
2023/12/26 06:45:50;;;;;;;6.05;0.93;;;10.10;99.90;;;;;;5115989;28;20035;-63
2023/12/26 06:48:15;;;;;;;4.53;0.60;;;10.10;99.90;;;;;;5116022;28;20088;-62
2023/12/26 06:50:41;;;;;;;2.60;0.73;;;10.10;99.90;;;;;;5115964;28;20035;-63
2023/12/26 06:53:06;;;;;;;3.30;1.05;;;10.10;99.90;;;;;;5115901;28;20032;-62
2023/12/26 06:55:32;;;;;;;1.30;0.38;;;10.00;99.90;;;;;;5116004;28;20031;-62
2023/12/26 06:57:58;;;;;;;8.40;1.00;;;10.00;99.90;;;;;;5115819;28;20032;-62
2023/12/26 07:00:24;;;;;;;4.30;1.35;;;10.00;99.90;;;;;;5115485;28;20078;-63
2023/12/26 07:02:49;;;;;;;3.13;0.80;;;10.00;99.90;;;;;;5115584;28;20040;-62
2023/12/26 07:05:15;;;;;;;4.78;0.60;;;10.00;99.90;;;;;;5115885;28;20074;-61
2023/12/26 07:07:41;;;;;;;7.80;1.05;;;10.00;99.90;;;;;;5115637;28;20116;-62
2023/12/26 07:10:07;;;;;;;6.78;1.00;;;10.00;99.90;;;;;;5115683;28;20025;-61
2023/12/26 07:12:32;;;;;;;7.40;1.23;;;10.00;99.90;;;;;;5115487;28;20077;-62
2023/12/26 07:14:58;;;;;;;3.05;1.25;;;10.00;99.90;;;;;;5115476;28;20021;-63
2023/12/26 07:17:24;;;;;;;4.28;1.00;;;9.90;99.90;;;;;;5115371;28;20032;-62
2023/12/26 07:19:49;;;;;;;3.60;0.82;;;9.90;99.90;;;;;;5115386;28;20036;-62
2023/12/26 07:22:15;;;;;;;3.78;0.63;;;9.90;99.90;;;;;;5115294;28;20028;-62
2023/12/26 07:24:41;;;;;;;8.00;1.13;;;9.80;99.90;;;;;;5114307;28;20027;-62
2023/12/26 07:27:07;;;;;;;2.30;0.70;;;9.80;99.90;;;;;;5115240;28;20097;-63
2023/12/26 07:29:33;;;;;;;3.28;0.63;;;9.70;99.90;;;;;;5108599;28;20025;-62
2023/12/26 07:31:58;;;;;;;6.35;1.02;;;9.70;99.90;;;;;;5094507;28;20040;-63
2023/12/26 07:34:24;;;;;;;2.15;0.65;;;9.70;99.90;;;;;;5092598;28;20111;-62
2023/12/26 07:36:50;;;;;;;7.13;1.27;;;9.70;99.90;;;;;;5094369;28;20028;-61
2023/12/26 07:39:15;;;;;;;12.98;1.27;;;9.60;99.90;;;;;;5093831;28;20021;-63
2023/12/26 07:41:41;;;;;;;4.75;1.30;;;9.60;99.90;;;;;;5094421;28;20032;-63
2023/12/26 07:44:07;;;;;;;7.07;1.25;;;9.60;99.90;;;;;;5093724;28;20023;-62
2023/12/26 07:46:33;;;;;;;4.50;0.77;;;9.60;99.90;;;;;;5094534;28;20016;-63
2023/12/26 07:48:58;;;;;;;9.07;1.23;;;9.50;99.90;;;;;;5094588;28;20032;-63
2023/12/26 07:51:24;;;;;;;6.95;1.20;;;9.50;99.90;;;;;;5094592;28;20023;-63
2023/12/26 07:53:52;;;;;;;6.07;1.00;;;9.50;99.90;;;;;;5094617;28;20082;-62
2023/12/26 07:56:18;;;;;;;2.30;0.77;;;9.40;99.90;;;;;;5094390;28;20032;-62
2023/12/26 07:58:45;;;;;;;5.10;1.15;;;9.40;99.90;;;;;;5094246;28;20040;-63
2023/12/26 08:01:13;;;;;;;2.60;0.90;;;9.40;99.90;;;;;;5094134;28;20029;-61
2023/12/26 08:03:39;;;;;;;4.30;0.80;;;9.50;99.90;;;;;;5094254;28;20028;-61
2023/12/26 08:06:04;;;;;;;7.78;0.73;;;9.50;99.90;;;;;;5094218;28;20063;-62
2023/12/26 08:08:30;;;;;;;3.72;0.63;;;9.50;99.90;;;;;;5094214;28;20024;-61
2023/12/26 08:10:56;;;;;;;1.65;0.70;;;9.60;99.90;;;;;;5094148;28;20049;-61
2023/12/26 08:13:22;;;;;;;9.10;0.80;;;9.60;99.90;;;;;;5094244;28;20060;-62
2023/12/26 08:15:47;;;;;;;8.13;1.20;;;9.60;99.90;;;;;;5093993;28;20051;-62
2023/12/26 08:18:13;;;;;;;3.50;0.77;;;9.60;99.90;;;;;;5094056;28;20020;-62
2023/12/26 08:20:39;;;;;;;7.30;1.23;;;9.60;99.90;;;;;;5093887;28;20049;-63
2023/12/26 08:23:04;;;;;;;6.47;0.63;;;9.70;99.90;;;;;;5093787;28;20025;-62
2023/12/26 08:25:30;;;;;;;7.50;1.08;;;9.70;99.90;;;;;;5094034;28;20025;-62
2023/12/26 08:27:56;;;;;;;6.28;1.17;;;9.70;99.90;;;;;;5093793;28;20040;-61
2023/12/26 08:30:21;;;;;;;4.78;0.80;;;9.70;99.90;;;;;;5093420;28;20024;-61
2023/12/26 08:32:47;;;;;;;7.60;1.20;;;9.70;99.90;;;;;;5093692;28;20084;-61
2023/12/26 08:35:13;;;;;;;2.92;0.77;;;9.70;99.90;;;;;;5102837;28;20036;-61
2023/12/26 08:37:38;;;;;;;3.75;1.17;;;9.70;99.90;;;;;;5102162;28;20163;-62
2023/12/26 08:40:04;;;;;;;7.05;0.95;;;9.70;99.90;;;;;;5095220;28;20033;-62
2023/12/26 08:42:30;;;;;;;3.60;0.60;;;9.70;99.90;;;;;;5093430;28;20039;-62
2023/12/26 08:44:56;;;;;;;7.65;1.10;;;9.70;99.90;;;;;;5093057;28;20074;-62
2023/12/26 08:47:21;;;;;;;3.80;0.57;;;9.70;99.90;;;;;;5093384;28;20055;-61
2023/12/26 08:49:47;;;;;;;5.47;1.02;;;9.70;99.90;;;;;;5093330;28;20025;-61
2023/12/26 08:52:13;;;;;;;5.72;1.08;;;9.70;99.90;;;;;;5092291;28;20040;-62
2023/12/26 08:54:41;;;;;;;8.18;0.80;;;9.80;99.90;;;;;;5093251;28;20028;-61
2023/12/26 08:57:07;;;;;;;4.40;1.10;;;9.80;99.90;;;;;;5093170;28;20036;-62
2023/12/26 08:59:32;;;;;;;9.10;1.30;;;9.80;99.90;;;;;;5092647;28;20048;-62
2023/12/26 09:01:58;;;;;;;2.38;0.80;;;9.80;99.90;;;;;;5092845;28;20056;-63
2023/12/26 09:04:26;;;;;;;4.60;0.98;;;9.90;99.90;;;;;;5091652;28;20052;-61
2023/12/26 09:06:53;;;;;;;3.40;0.95;;;9.90;99.90;;;;;;5092426;28;20043;-62
2023/12/26 09:09:18;;;;;;;7.70;0.95;;;9.90;99.90;;;;;;5091694;28;20059;-63
2023/12/26 09:11:44;;;;;;;3.33;1.00;;;9.90;99.90;;;;;;5092857;28;20028;-62
2023/12/26 09:14:10;;;;;;;5.97;1.10;;;9.90;99.90;;;;;;5092696;28;20020;-61
2023/12/26 09:16:35;;;;;;;7.07;0.98;;;9.90;99.90;;;;;;5092879;28;20055;-61
2023/12/26 09:19:01;;;;;;;3.50;1.02;;;10.00;99.90;;;;;;5092978;28;20541;-61
2023/12/26 09:21:27;;;;;;;5.22;0.80;;;10.00;99.90;;;;;;5092767;28;20020;-61
2023/12/26 09:23:52;;;;;;;8.07;1.38;;;10.00;99.90;;;;;;5092735;28;20494;-62
2023/12/26 09:26:21;;;;;;;7.03;0.93;;;10.00;99.90;;;;;;5092703;28;20080;-63
2023/12/26 09:28:47;;;;;;;7.55;1.10;;;10.00;99.90;;;;;;5097687;28;20040;-60
2023/12/26 09:31:12;;;;;;;5.38;1.05;;;10.00;99.90;;;;;;5092536;28;20021;-62
2023/12/26 09:33:38;;;;;;;4.07;1.48;;;10.00;99.90;;;;;;5097944;28;20047;-61
2023/12/26 09:36:05;;;;;;;3.25;1.02;;;10.00;99.90;;;;;;5097575;28;20048;-62
2023/12/26 09:38:30;;;;;;;8.90;1.60;;;9.90;99.90;;;;;;5101336;28;20046;-60
2023/12/26 09:40:56;;;;;;;5.43;0.82;;;9.90;99.90;;;;;;5100946;28;20546;-61
2023/12/26 09:43:22;;;;;;;2.90;0.60;;;9.80;99.90;;;;;;5100996;28;20406;-63
2023/12/26 09:45:48;;;;;;;8.93;1.10;;;9.80;99.90;;;;;;5101628;28;20020;-61
2023/12/26 09:48:15;;;;;;;8.77;1.00;;;9.80;99.90;;;;;;5102658;28;20021;-60
2023/12/26 09:50:42;;;;;;;2.78;0.90;;;9.80;99.90;;;;;;5101015;28;20013;-61
2023/12/26 09:53:09;;;;;;;6.15;1.08;;;9.80;99.90;;;;;;5112640;28;20502;-62
2023/12/26 09:55:35;;;;;;;10.63;1.33;;;9.80;99.90;;;;;;5113345;28;20054;-62
2023/12/26 09:58:02;;;;;;;5.03;1.05;;;9.80;99.90;;;;;;5118066;28;20054;-63
2023/12/26 10:00:29;;;;;;;6.15;1.00;;;9.80;99.90;;;;;;5119156;28;20048;-61
2023/12/26 10:02:55;;;;;;;9.77;1.65;;;9.80;99.90;;;;;;5119466;28;20047;-63
2023/12/26 10:05:22;;;;;;;7.05;1.15;;;9.80;99.90;;;;;;5118472;28;20033;-62
2023/12/26 10:07:47;;;;;;;5.63;1.02;;;9.90;99.90;;;;;;5119474;28;20032;-62
2023/12/26 10:10:22;;;;;;;5.35;0.95;;;9.90;99.90;;;;;;5119405;28;20108;-66
2023/12/26 10:12:49;;;;;;;4.57;0.98;;;10.00;99.90;;;;;;5119358;28;20073;-62
2023/12/26 10:15:16;;;;;;;7.55;1.20;;;10.00;99.90;;;;;;5119352;28;20028;-62
2023/12/26 10:17:45;;;;;;;9.02;1.23;;;10.00;99.90;;;;;;5119361;28;20036;-63
2023/12/26 10:20:13;;;;;;;8.85;1.00;;;10.10;99.90;;;;;;5119268;28;20482;-63
2023/12/26 10:22:42;;;;;;;6.45;0.80;;;10.10;99.90;;;;;;5119234;28;20028;-63
2023/12/26 10:25:12;;;;;;;4.10;1.13;;;10.20;99.90;;;;;;5119182;28;20020;-62
2023/12/26 10:27:39;;;;;;;3.88;0.80;;;10.20;99.90;;;;;;5119132;28;20056;-63
2023/12/26 10:30:05;;;;;;;9.80;1.25;;;10.20;99.90;;;;;;5119180;28;20084;-65
2023/12/26 10:32:31;;;;;;;9.98;1.23;;;10.20;99.90;;;;;;5115661;28;20031;-64
2023/12/26 10:35:14;;;;;;;5.35;0.80;;;10.30;99.90;;;;;;5116070;28;20088;-63
2023/12/26 10:37:41;;;;;;;9.07;1.15;;;10.30;99.90;;;;;;5119117;28;20024;-63
2023/12/26 10:40:07;;;;;;;6.68;1.02;;;10.40;99.90;;;;;;5119175;28;20024;-61
2023/12/26 10:42:39;;;;;;;3.63;0.82;;;10.40;99.90;;;;;;5119019;28;20028;-64
2023/12/26 10:45:06;;;;;;;6.90;1.17;;;10.40;99.90;;;;;;5119161;28;20027;-64
2023/12/26 10:47:33;;;;;;;4.25;0.80;;;10.40;99.90;;;;;;5119071;28;20028;-60
2023/12/26 10:50:05;;;;;;;5.93;1.00;;;10.50;99.90;;;;;;5118923;28;20036;-62
2023/12/26 10:52:31;;;;;;;5.93;1.20;;;10.50;99.90;;;;;;5118996;28;20031;-64
2023/12/26 10:55:00;;;;;;;4.50;1.30;;;10.50;99.90;;;;;;5119011;28;20024;-63
2023/12/26 10:57:29;;;;;;;7.63;1.00;;;10.60;99.90;;;;;;5117283;28;20038;-63
2023/12/26 13:51:51;;;;;;;6.93;1.63;;;10.50;99.90;;;;;;5112658;28;20031;-62
2023/12/26 13:54:17;;;;;;;5.80;1.23;;;10.50;99.90;;;;;;5112554;28;20088;-65
2023/12/26 13:56:43;;;;;;;7.72;0.85;;;10.40;99.90;;;;;;5112263;28;20032;-63
2023/12/26 13:59:08;;;;;;;5.72;0.95;;;10.40;99.90;;;;;;5112377;28;20071;-63
2023/12/26 14:01:34;;;;;;;8.07;0.98;;;10.40;99.90;;;;;;5111264;28;20081;-62
2023/12/26 14:04:00;;;;;;;5.40;0.80;;;10.40;99.90;;;;;;5112315;28;20032;-62
2023/12/26 14:06:26;;;;;;;3.83;1.02;;;10.40;99.90;;;;;;5111309;28;20024;-65
2023/12/26 14:08:52;;;;;;;9.75;1.00;;;10.40;99.90;;;;;;5111931;28;20021;-62
2023/12/26 14:11:19;;;;;;;9.15;1.15;;;10.30;99.90;;;;;;5112311;28;20023;-62
2023/12/26 14:13:48;;;;;;;5.20;1.17;;;10.30;99.90;;;;;;5112564;28;20111;-64
2023/12/26 14:16:15;;;;;;;3.88;0.73;;;10.30;99.90;;;;;;5112307;28;20024;-62
2023/12/26 14:18:40;;;;;;;4.75;0.98;;;10.30;99.90;;;;;;5112578;28;20035;-61
2023/12/26 14:21:06;;;;;;;4.97;0.75;;;10.30;99.90;;;;;;5104392;28;20036;-62
2023/12/26 14:23:32;;;;;;;2.88;1.00;;;10.30;99.90;;;;;;5110026;28;20114;-62
2023/12/26 14:25:58;;;;;;;7.63;1.15;;;10.30;99.90;;;;;;5112374;28;20016;-63
2023/12/26 14:28:23;;;;;;;5.88;1.58;;;10.30;99.90;;;;;;5112434;28;20070;-62
2023/12/26 14:30:49;;;;;;;6.90;0.95;;;10.20;99.90;;;;;;5112136;28;20040;-62
2023/12/26 14:33:19;;;;;;;6.97;1.00;;;10.30;99.90;;;;;;5112381;28;20027;-64
2023/12/26 14:35:50;;;;;;;6.00;0.80;;;10.30;99.90;;;;;;5112431;28;20103;-62
2023/12/26 14:38:16;;;;;;;4.07;0.80;;;10.30;99.90;;;;;;5112341;28;20028;-64
2023/12/26 14:40:43;;;;;;;5.03;0.68;;;10.30;99.90;;;;;;5112319;28;20028;-62
2023/12/26 14:43:09;;;;;;;6.00;1.15;;;10.20;99.90;;;;;;5113168;28;20040;-64
2023/12/26 14:45:35;;;;;;;5.00;1.15;;;10.20;99.90;;;;;;5116249;28;20028;-62
2023/12/26 14:48:01;;;;;;;3.88;0.77;;;10.20;99.90;;;;;;5116056;28;20070;-65
2023/12/26 14:50:26;;;;;;;3.15;0.80;;;10.20;99.90;;;;;;5116033;28;20020;-62
2023/12/26 14:52:52;;;;;;;5.82;0.75;;;10.20;99.90;;;;;;5116013;28;20047;-62
2023/12/26 14:55:18;;;;;;;1.85;0.80;;;10.20;99.90;;;;;;5116117;28;20066;-62
2023/12/26 14:57:44;;;;;;;4.95;1.10;;;10.20;99.90;;;;;;5114792;28;20036;-62
2023/12/26 15:00:10;;;;;;;6.55;1.00;;;10.20;99.90;;;;;;5115489;28;20040;-65
2023/12/26 15:02:35;;;;;;;6.72;1.15;;;10.20;99.90;;;;;;5115472;28;20057;-64
2023/12/26 15:05:02;;;;;;;6.93;1.02;;;10.20;99.90;;;;;;5115817;28;20083;-62
2023/12/26 15:07:27;;;;;;;4.10;0.95;;;10.20;99.90;;;;;;5114704;28;20031;-62
2023/12/26 15:09:53;;;;;;;7.50;1.10;;;10.10;99.90;;;;;;5115698;28;20028;-64
2023/12/26 15:12:18;;;;;;;6.80;1.00;;;10.10;99.90;;;;;;5115636;28;20059;-62
2023/12/26 15:14:45;;;;;;;1.92;0.70;;;10.10;99.90;;;;;;5115517;28;20035;-64
2023/12/26 15:17:11;;;;;;;4.28;0.98;;;10.10;99.90;;;;;;5115633;28;20031;-62
2023/12/26 15:19:37;;;;;;;6.90;1.25;;;10.20;99.90;;;;;;5115445;28;20032;-62
2023/12/26 15:22:03;;;;;;;5.97;1.00;;;10.10;99.90;;;;;;5114372;28;20032;-62
2023/12/26 15:24:28;;;;;;;3.70;1.27;;;10.20;99.90;;;;;;5115393;28;20036;-63
2023/12/26 15:26:54;;;;;;;6.35;0.95;;;10.10;99.90;;;;;;5115135;28;20042;-64
2023/12/26 15:29:20;;;;;;;7.32;1.55;;;10.10;99.90;;;;;;5115245;28;20122;-62
2023/12/26 15:31:46;;;;;;;5.60;1.13;;;10.10;99.90;;;;;;5114992;28;20020;-62
2023/12/26 15:34:12;;;;;;;3.13;1.10;;;10.10;99.90;;;;;;5115086;28;20040;-64